sensor_id;sensor_type;location;lat;lon;timestamp;temperature;humidity
40434;DHT22;26146;51.114;5.654;2023-02-15T00:02:01;3.70;99.90
40434;DHT22;26146;51.114;5.654;2023-02-15T00:06:02;3.70;99.90
40434;DHT22;26146;51.114;5.654;2023-02-15T00:10:04;3.60;99.90
40434;DHT22;26146;51.114;5.654;2023-02-15T00:18:10;3.50;99.90
40434;DHT22;26146;51.114;5.654;2023-02-15T00:22:11;3.50;99.90
40434;DHT22;26146;51.114;5.654;2023-02-15T00:26:12;3.50;99.90
40434;DHT22;26146;51.114;5.654;2023-02-15T00:30:13;3.40;99.90
40434;DHT22;26146;51.114;5.654;2023-02-15T00:34:15;3.40;99.90
40434;DHT22;26146;51.114;5.654;2023-02-15T00:38:16;3.30;99.90
40434;DHT22;26146;51.114;5.654;2023-02-15T00:42:17;3.30;99.90
40434;DHT22;26146;51.114;5.654;2023-02-15T00:46:18;3.30;99.90
40434;DHT22;26146;51.114;5.654;2023-02-15T00:50:19;3.20;99.90
40434;DHT22;26146;51.114;5.654;2023-02-15T00:54:20;3.20;99.90
40434;DHT22;26146;51.114;5.654;2023-02-15T00:58:21;3.10;99.90
40434;DHT22;26146;51.114;5.654;2023-02-15T01:02:22;3.10;99.90
40434;DHT22;26146;51.114;5.654;2023-02-15T01:06:23;3.10;99.90
40434;DHT22;26146;51.114;5.654;2023-02-15T01:10:25;3.10;99.90
40434;DHT22;26146;51.114;5.654;2023-02-15T01:14:26;3.00;99.90
40434;DHT22;26146;51.114;5.654;2023-02-15T01:18:27;3.00;99.90
40434;DHT22;26146;51.114;5.654;2023-02-15T01:22:30;3.00;99.90
40434;DHT22;26146;51.114;5.654;2023-02-15T01:26:32;3.10;99.90
40434;DHT22;26146;51.114;5.654;2023-02-15T01:30:35;3.00;99.90
40434;DHT22;26146;51.114;5.654;2023-02-15T01:34:36;3.00;99.90
40434;DHT22;26146;51.114;5.654;2023-02-15T01:38:37;2.90;99.90
40434;DHT22;26146;51.114;5.654;2023-02-15T01:42:38;2.90;99.90
40434;DHT22;26146;51.114;5.654;2023-02-15T01:46:45;2.90;99.90
40434;DHT22;26146;51.114;5.654;2023-02-15T01:50:58;2.70;99.90
40434;DHT22;26146;51.114;5.654;2023-02-15T01:55:01;2.60;99.90
40434;DHT22;26146;51.114;5.654;2023-02-15T01:59:14;2.60;99.90
40434;DHT22;26146;51.114;5.654;2023-02-15T02:03:19;2.60;99.90
40434;DHT22;26146;51.114;5.654;2023-02-15T02:07:26;2.60;99.90
40434;DHT22;26146;51.114;5.654;2023-02-15T02:11:29;2.70;99.90
40434;DHT22;26146;51.114;5.654;2023-02-15T02:24:36;2.70;99.90
40434;DHT22;26146;51.114;5.654;2023-02-15T02:46:52;2.50;99.90
40434;DHT22;26146;51.114;5.654;2023-02-15T02:50:54;2.50;99.90
40434;DHT22;26146;51.114;5.654;2023-02-15T02:54:55;2.50;99.90
40434;DHT22;26146;51.114;5.654;2023-02-15T02:59:12;2.50;99.90
40434;DHT22;26146;51.114;5.654;2023-02-15T03:07:23;2.50;99.90
40434;DHT22;26146;51.114;5.654;2023-02-15T03:11:26;2.50;99.90
40434;DHT22;26146;51.114;5.654;2023-02-15T03:15:33;2.50;99.90
40434;DHT22;26146;51.114;5.654;2023-02-15T03:19:58;2.40;99.90
40434;DHT22;26146;51.114;5.654;2023-02-15T03:24:11;2.50;99.90
40434;DHT22;26146;51.114;5.654;2023-02-15T03:28:17;2.40;99.90
40434;DHT22;26146;51.114;5.654;2023-02-15T03:32:20;2.40;99.90
40434;DHT22;26146;51.114;5.654;2023-02-15T03:36:28;2.30;99.90
40434;DHT22;26146;51.114;5.654;2023-02-15T03:40:34;2.30;99.90
40434;DHT22;26146;51.114;5.654;2023-02-15T03:49:20;2.20;99.90
40434;DHT22;26146;51.114;5.654;2023-02-15T03:53:24;2.30;99.90
40434;DHT22;26146;51.114;5.654;2023-02-15T03:57:28;2.10;99.90
40434;DHT22;26146;51.114;5.654;2023-02-15T04:06:07;2.10;99.90
40434;DHT22;26146;51.114;5.654;2023-02-15T04:10:08;2.10;99.90
40434;DHT22;26146;51.114;5.654;2023-02-15T04:14:27;2.10;99.90
40434;DHT22;26146;51.114;5.654;2023-02-15T04:18:47;2.20;99.90
40434;DHT22;26146;51.114;5.654;2023-02-15T04:23:07;2.00;99.90
40434;DHT22;26146;51.114;5.654;2023-02-15T04:27:26;2.20;99.90
40434;DHT22;26146;51.114;5.654;2023-02-15T04:31:27;2.10;99.90
40434;DHT22;26146;51.114;5.654;2023-02-15T04:35:30;2.00;99.90
40434;DHT22;26146;51.114;5.654;2023-02-15T04:39:32;2.00;99.90
40434;DHT22;26146;51.114;5.654;2023-02-15T04:43:33;2.10;99.90
40434;DHT22;26146;51.114;5.654;2023-02-15T04:47:34;2.20;99.90
40434;DHT22;26146;51.114;5.654;2023-02-15T04:51:35;2.20;99.90
40434;DHT22;26146;51.114;5.654;2023-02-15T04:55:36;2.20;99.90
40434;DHT22;26146;51.114;5.654;2023-02-15T04:59:37;2.10;99.90
40434;DHT22;26146;51.114;5.654;2023-02-15T05:03:38;2.20;99.90
40434;DHT22;26146;51.114;5.654;2023-02-15T05:07:39;2.20;99.90
40434;DHT22;26146;51.114;5.654;2023-02-15T05:11:40;2.10;99.90
40434;DHT22;26146;51.114;5.654;2023-02-15T05:15:41;2.10;99.90
40434;DHT22;26146;51.114;5.654;2023-02-15T05:19:42;2.00;99.90
40434;DHT22;26146;51.114;5.654;2023-02-15T05:23:43;2.10;99.90
40434;DHT22;26146;51.114;5.654;2023-02-15T05:27:44;2.10;99.90
40434;DHT22;26146;51.114;5.654;2023-02-15T05:32:03;2.00;99.90
40434;DHT22;26146;51.114;5.654;2023-02-15T05:36:05;1.90;99.90
40434;DHT22;26146;51.114;5.654;2023-02-15T05:40:07;1.90;99.90
40434;DHT22;26146;51.114;5.654;2023-02-15T05:44:09;1.80;99.90
40434;DHT22;26146;51.114;5.654;2023-02-15T05:48:09;1.90;99.90
40434;DHT22;26146;51.114;5.654;2023-02-15T05:52:10;1.80;99.90
40434;DHT22;26146;51.114;5.654;2023-02-15T05:56:12;1.70;99.90
40434;DHT22;26146;51.114;5.654;2023-02-15T06:00:14;1.70;99.90
40434;DHT22;26146;51.114;5.654;2023-02-15T06:04:15;1.80;99.90
40434;DHT22;26146;51.114;5.654;2023-02-15T06:08:16;1.80;99.90
40434;DHT22;26146;51.114;5.654;2023-02-15T06:12:17;1.80;99.90
40434;DHT22;26146;51.114;5.654;2023-02-15T06:16:18;1.70;99.90
40434;DHT22;26146;51.114;5.654;2023-02-15T06:20:19;1.50;99.90
40434;DHT22;26146;51.114;5.654;2023-02-15T06:24:22;1.70;99.90
40434;DHT22;26146;51.114;5.654;2023-02-15T06:28:23;1.70;99.90
40434;DHT22;26146;51.114;5.654;2023-02-15T06:32:26;1.70;99.90
40434;DHT22;26146;51.114;5.654;2023-02-15T06:36:28;1.70;99.90
40434;DHT22;26146;51.114;5.654;2023-02-15T06:40:29;1.60;99.90
40434;DHT22;26146;51.114;5.654;2023-02-15T06:44:30;1.50;99.90
40434;DHT22;26146;51.114;5.654;2023-02-15T06:48:31;1.50;99.90
40434;DHT22;26146;51.114;5.654;2023-02-15T06:52:32;1.50;99.90
40434;DHT22;26146;51.114;5.654;2023-02-15T06:56:33;1.50;99.90
40434;DHT22;26146;51.114;5.654;2023-02-15T07:00:34;1.40;99.90
40434;DHT22;26146;51.114;5.654;2023-02-15T07:04:35;1.50;99.90
40434;DHT22;26146;51.114;5.654;2023-02-15T07:08:37;1.50;99.90
40434;DHT22;26146;51.114;5.654;2023-02-15T07:12:38;1.60;99.90
40434;DHT22;26146;51.114;5.654;2023-02-15T07:16:47;1.60;99.90
40434;DHT22;26146;51.114;5.654;2023-02-15T07:20:48;1.80;99.90
40434;DHT22;26146;51.114;5.654;2023-02-15T07:24:49;1.80;99.90
40434;DHT22;26146;51.114;5.654;2023-02-15T07:28:55;1.80;99.90
40434;DHT22;26146;51.114;5.654;2023-02-15T07:32:57;1.80;99.90
40434;DHT22;26146;51.114;5.654;2023-02-15T07:37:16;2.00;99.90
40434;DHT22;26146;51.114;5.654;2023-02-15T07:41:19;2.00;99.90
40434;DHT22;26146;51.114;5.654;2023-02-15T07:45:21;2.10;99.90
40434;DHT22;26146;51.114;5.654;2023-02-15T07:49:22;2.40;99.90
40434;DHT22;26146;51.114;5.654;2023-02-15T07:53:23;2.50;99.90
40434;DHT22;26146;51.114;5.654;2023-02-15T07:57:23;2.70;99.90
40434;DHT22;26146;51.114;5.654;2023-02-15T08:01:31;2.70;99.90
40434;DHT22;26146;51.114;5.654;2023-02-15T08:05:34;2.80;99.90
40434;DHT22;26146;51.114;5.654;2023-02-15T08:09:35;2.80;99.90
40434;DHT22;26146;51.114;5.654;2023-02-15T08:13:36;3.00;99.90
40434;DHT22;26146;51.114;5.654;2023-02-15T08:17:54;3.00;99.90
40434;DHT22;26146;51.114;5.654;2023-02-15T08:21:57;3.40;99.90
40434;DHT22;26146;51.114;5.654;2023-02-15T08:25:59;3.40;99.90
40434;DHT22;26146;51.114;5.654;2023-02-15T08:30:00;3.60;99.90
40434;DHT22;26146;51.114;5.654;2023-02-15T08:34:01;3.70;99.90
40434;DHT22;26146;51.114;5.654;2023-02-15T08:38:02;3.70;99.90
40434;DHT22;26146;51.114;5.654;2023-02-15T08:42:03;3.90;99.90
40434;DHT22;26146;51.114;5.654;2023-02-15T08:46:06;4.10;99.90
40434;DHT22;26146;51.114;5.654;2023-02-15T08:50:07;4.20;99.90
40434;DHT22;26146;51.114;5.654;2023-02-15T08:54:12;4.20;99.90
40434;DHT22;26146;51.114;5.654;2023-02-15T08:58:13;4.30;99.90
40434;DHT22;26146;51.114;5.654;2023-02-15T09:02:14;4.50;99.90
40434;DHT22;26146;51.114;5.654;2023-02-15T09:06:17;4.70;99.90
40434;DHT22;26146;51.114;5.654;2023-02-15T09:10:21;4.80;99.90
40434;DHT22;26146;51.114;5.654;2023-02-15T09:14:22;5.10;99.90
40434;DHT22;26146;51.114;5.654;2023-02-15T09:18:25;5.40;99.90
40434;DHT22;26146;51.114;5.654;2023-02-15T09:22:26;5.60;99.90
40434;DHT22;26146;51.114;5.654;2023-02-15T09:26:29;5.60;99.90
40434;DHT22;26146;51.114;5.654;2023-02-15T09:30:33;5.80;99.90
40434;DHT22;26146;51.114;5.654;2023-02-15T09:34:35;6.00;99.90
40434;DHT22;26146;51.114;5.654;2023-02-15T09:38:36;6.10;99.90
40434;DHT22;26146;51.114;5.654;2023-02-15T09:51:33;6.90;99.90
40434;DHT22;26146;51.114;5.654;2023-02-15T10:13:31;7.70;99.90
40434;DHT22;26146;51.114;5.654;2023-02-15T10:30:10;8.30;99.90
40434;DHT22;26146;51.114;5.654;2023-02-15T10:34:40;8.60;99.90
40434;DHT22;26146;51.114;5.654;2023-02-15T10:39:30;8.80;99.90
40434;DHT22;26146;51.114;5.654;2023-02-15T11:01:32;10.20;99.90
40434;DHT22;26146;51.114;5.654;2023-02-15T11:05:42;10.30;99.90
40434;DHT22;26146;51.114;5.654;2023-02-15T11:09:51;10.40;99.90
40434;DHT22;26146;51.114;5.654;2023-02-15T11:14:01;10.50;99.90
40434;DHT22;26146;51.114;5.654;2023-02-15T11:22:13;11.20;99.90
40434;DHT22;26146;51.114;5.654;2023-02-15T11:26:28;11.60;99.90
40434;DHT22;26146;51.114;5.654;2023-02-15T11:30:45;12.00;99.10
40434;DHT22;26146;51.114;5.654;2023-02-15T11:34:51;12.20;98.10
40434;DHT22;26146;51.114;5.654;2023-02-15T11:39:02;12.40;97.70
40434;DHT22;26146;51.114;5.654;2023-02-15T11:43:49;12.50;96.70
40434;DHT22;26146;51.114;5.654;2023-02-15T11:47:30;12.70;96.20
40434;DHT22;26146;51.114;5.654;2023-02-15T11:51:31;13.00;96.00
40434;DHT22;26146;51.114;5.654;2023-02-15T11:55:34;13.20;95.70
40434;DHT22;26146;51.114;5.654;2023-02-15T11:59:36;13.20;95.40
40434;DHT22;26146;51.114;5.654;2023-02-15T12:03:51;13.50;95.10
40434;DHT22;26146;51.114;5.654;2023-02-15T12:07:57;13.60;94.60
40434;DHT22;26146;51.114;5.654;2023-02-15T12:12:21;13.70;94.60
40434;DHT22;26146;51.114;5.654;2023-02-15T12:17:12;13.70;94.60
40434;DHT22;26146;51.114;5.654;2023-02-15T12:20:59;13.60;94.80
40434;DHT22;26146;51.114;5.654;2023-02-15T12:25:28;13.70;94.50
40434;DHT22;26146;51.114;5.654;2023-02-15T12:29:35;13.80;94.30
40434;DHT22;26146;51.114;5.654;2023-02-15T12:33:42;13.80;93.70
40434;DHT22;26146;51.114;5.654;2023-02-15T12:37:54;13.80;94.20
40434;DHT22;26146;51.114;5.654;2023-02-15T12:46:24;13.90;94.40
40434;DHT22;26146;51.114;5.654;2023-02-15T12:50:25;14.00;94.10
40434;DHT22;26146;51.114;5.654;2023-02-15T12:54:36;13.90;94.10
40434;DHT22;26146;51.114;5.654;2023-02-15T12:58:40;14.10;93.90
40434;DHT22;26146;51.114;5.654;2023-02-15T13:02:47;14.20;93.60
40434;DHT22;26146;51.114;5.654;2023-02-15T13:06:51;14.30;93.20
40434;DHT22;26146;51.114;5.654;2023-02-15T13:11:04;14.40;93.20
40434;DHT22;26146;51.114;5.654;2023-02-15T13:15:28;14.60;92.00
40434;DHT22;26146;51.114;5.654;2023-02-15T13:19:39;14.60;92.00
40434;DHT22;26146;51.114;5.654;2023-02-15T13:23:44;14.50;91.90
40434;DHT22;26146;51.114;5.654;2023-02-15T13:27:50;14.50;91.60
40434;DHT22;26146;51.114;5.654;2023-02-15T13:31:54;14.40;91.60
40434;DHT22;26146;51.114;5.654;2023-02-15T13:36:10;14.60;91.40
40434;DHT22;26146;51.114;5.654;2023-02-15T13:40:20;14.80;91.70
40434;DHT22;26146;51.114;5.654;2023-02-15T13:49:08;15.00;91.90
40434;DHT22;26146;51.114;5.654;2023-02-15T14:06:27;15.00;91.40
40434;DHT22;26146;51.114;5.654;2023-02-15T14:10:43;15.10;91.00
40434;DHT22;26146;51.114;5.654;2023-02-15T14:15:05;15.20;91.60
40434;DHT22;26146;51.114;5.654;2023-02-15T14:32:38;14.70;92.70
40434;DHT22;26146;51.114;5.654;2023-02-15T14:36:40;14.70;92.60
40434;DHT22;26146;51.114;5.654;2023-02-15T14:40:54;14.70;92.90
40434;DHT22;26146;51.114;5.654;2023-02-15T14:45:19;14.60;93.10
40434;DHT22;26146;51.114;5.654;2023-02-15T14:49:34;14.80;92.80
40434;DHT22;26146;51.114;5.654;2023-02-15T14:53:38;14.70;92.90
40434;DHT22;26146;51.114;5.654;2023-02-15T14:57:39;14.70;93.00
40434;DHT22;26146;51.114;5.654;2023-02-15T15:01:58;14.70;93.40
40434;DHT22;26146;51.114;5.654;2023-02-15T15:06:01;14.70;93.30
40434;DHT22;26146;51.114;5.654;2023-02-15T15:10:18;14.50;93.60
40434;DHT22;26146;51.114;5.654;2023-02-15T15:22:45;14.30;94.80
40434;DHT22;26146;51.114;5.654;2023-02-15T15:26:46;14.20;95.10
40434;DHT22;26146;51.114;5.654;2023-02-15T15:30:51;14.00;95.10
40434;DHT22;26146;51.114;5.654;2023-02-15T15:39:21;13.80;95.70
40434;DHT22;26146;51.114;5.654;2023-02-15T15:43:42;13.70;96.20
40434;DHT22;26146;51.114;5.654;2023-02-15T15:52:03;13.50;96.90
40434;DHT22;26146;51.114;5.654;2023-02-15T15:56:16;13.60;96.70
40434;DHT22;26146;51.114;5.654;2023-02-15T16:04:31;13.30;97.10
40434;DHT22;26146;51.114;5.654;2023-02-15T16:08:35;13.20;97.10
40434;DHT22;26146;51.114;5.654;2023-02-15T16:12:38;13.10;97.40
40434;DHT22;26146;51.114;5.654;2023-02-15T16:16:39;13.00;97.70
40434;DHT22;26146;51.114;5.654;2023-02-15T16:20:41;12.90;97.80
40434;DHT22;26146;51.114;5.654;2023-02-15T16:25:19;12.90;98.00
40434;DHT22;26146;51.114;5.654;2023-02-15T16:29:31;12.90;98.10
40434;DHT22;26146;51.114;5.654;2023-02-15T16:33:37;12.70;98.50
40434;DHT22;26146;51.114;5.654;2023-02-15T16:37:38;12.50;99.00
40434;DHT22;26146;51.114;5.654;2023-02-15T16:41:39;12.30;99.40
40434;DHT22;26146;51.114;5.654;2023-02-15T16:45:43;12.30;99.70
40434;DHT22;26146;51.114;5.654;2023-02-15T16:49:47;12.20;99.90
40434;DHT22;26146;51.114;5.654;2023-02-15T16:53:49;12.10;99.90
40434;DHT22;26146;51.114;5.654;2023-02-15T16:57:51;12.00;99.90
40434;DHT22;26146;51.114;5.654;2023-02-15T17:01:56;11.80;99.90
40434;DHT22;26146;51.114;5.654;2023-02-15T17:05:59;11.80;99.90
40434;DHT22;26146;51.114;5.654;2023-02-15T17:10:01;11.60;99.90
40434;DHT22;26146;51.114;5.654;2023-02-15T17:18:21;11.50;99.90
40434;DHT22;26146;51.114;5.654;2023-02-15T17:22:25;11.40;99.90
40434;DHT22;26146;51.114;5.654;2023-02-15T17:30:36;11.20;99.90
40434;DHT22;26146;51.114;5.654;2023-02-15T17:39:12;11.10;99.90
40434;DHT22;26146;51.114;5.654;2023-02-15T17:43:19;11.00;99.90
40434;DHT22;26146;51.114;5.654;2023-02-15T17:47:24;10.90;99.90
40434;DHT22;26146;51.114;5.654;2023-02-15T17:51:27;11.00;99.90
40434;DHT22;26146;51.114;5.654;2023-02-15T17:55:28;10.80;99.90
40434;DHT22;26146;51.114;5.654;2023-02-15T17:59:35;10.70;99.90
40434;DHT22;26146;51.114;5.654;2023-02-15T18:03:55;10.70;99.90
40434;DHT22;26146;51.114;5.654;2023-02-15T18:08:17;10.70;99.90
40434;DHT22;26146;51.114;5.654;2023-02-15T18:12:37;10.60;99.90
40434;DHT22;26146;51.114;5.654;2023-02-15T18:16:41;10.60;99.90
40434;DHT22;26146;51.114;5.654;2023-02-15T18:20:43;10.60;99.90
40434;DHT22;26146;51.114;5.654;2023-02-15T18:24:45;10.60;99.90
40434;DHT22;26146;51.114;5.654;2023-02-15T18:28:47;10.50;99.90
40434;DHT22;26146;51.114;5.654;2023-02-15T18:32:50;10.50;99.90
40434;DHT22;26146;51.114;5.654;2023-02-15T18:36:52;10.40;99.90
40434;DHT22;26146;51.114;5.654;2023-02-15T18:40:53;10.40;99.90
40434;DHT22;26146;51.114;5.654;2023-02-15T18:44:57;10.30;99.90
40434;DHT22;26146;51.114;5.654;2023-02-15T18:48:58;10.30;99.90
40434;DHT22;26146;51.114;5.654;2023-02-15T18:53:04;10.10;99.90
40434;DHT22;26146;51.114;5.654;2023-02-15T18:57:11;10.20;99.90
40434;DHT22;26146;51.114;5.654;2023-02-15T19:01:14;10.30;99.90
40434;DHT22;26146;51.114;5.654;2023-02-15T19:05:16;10.20;99.90
40434;DHT22;26146;51.114;5.654;2023-02-15T19:09:20;10.20;99.90
40434;DHT22;26146;51.114;5.654;2023-02-15T19:13:22;10.20;99.90
40434;DHT22;26146;51.114;5.654;2023-02-15T19:17:23;10.20;99.90
40434;DHT22;26146;51.114;5.654;2023-02-15T19:21:26;10.10;99.90
40434;DHT22;26146;51.114;5.654;2023-02-15T19:25:31;10.00;99.90
40434;DHT22;26146;51.114;5.654;2023-02-15T19:29:33;10.00;99.90
40434;DHT22;26146;51.114;5.654;2023-02-15T19:33:34;9.90;99.90
40434;DHT22;26146;51.114;5.654;2023-02-15T19:37:40;9.90;99.90
40434;DHT22;26146;51.114;5.654;2023-02-15T19:41:44;9.80;99.90
40434;DHT22;26146;51.114;5.654;2023-02-15T19:45:45;9.80;99.90
40434;DHT22;26146;51.114;5.654;2023-02-15T19:49:46;9.70;99.90
40434;DHT22;26146;51.114;5.654;2023-02-15T19:53:48;9.70;99.90
40434;DHT22;26146;51.114;5.654;2023-02-15T19:57:50;9.60;99.90
40434;DHT22;26146;51.114;5.654;2023-02-15T20:01:54;9.70;99.90
40434;DHT22;26146;51.114;5.654;2023-02-15T20:05:57;9.60;99.90
40434;DHT22;26146;51.114;5.654;2023-02-15T20:09:59;9.50;99.90
40434;DHT22;26146;51.114;5.654;2023-02-15T20:14:00;9.50;99.90
40434;DHT22;26146;51.114;5.654;2023-02-15T20:18:02;9.50;99.90
40434;DHT22;26146;51.114;5.654;2023-02-15T20:22:04;9.40;99.90
40434;DHT22;26146;51.114;5.654;2023-02-15T20:26:15;9.30;99.90
40434;DHT22;26146;51.114;5.654;2023-02-15T20:30:21;9.30;99.90
40434;DHT22;26146;51.114;5.654;2023-02-15T20:34:22;9.30;99.90
40434;DHT22;26146;51.114;5.654;2023-02-15T20:38:34;9.30;99.90
40434;DHT22;26146;51.114;5.654;2023-02-15T20:42:35;9.20;99.90
40434;DHT22;26146;51.114;5.654;2023-02-15T20:46:39;9.20;99.90
40434;DHT22;26146;51.114;5.654;2023-02-15T20:50:40;9.20;99.90
40434;DHT22;26146;51.114;5.654;2023-02-15T20:55:01;9.20;99.90
40434;DHT22;26146;51.114;5.654;2023-02-15T20:59:16;9.10;99.90
40434;DHT22;26146;51.114;5.654;2023-02-15T21:03:21;9.10;99.90
40434;DHT22;26146;51.114;5.654;2023-02-15T21:07:22;9.20;99.90
40434;DHT22;26146;51.114;5.654;2023-02-15T21:11:23;9.10;99.90
40434;DHT22;26146;51.114;5.654;2023-02-15T21:15:31;9.10;99.90
40434;DHT22;26146;51.114;5.654;2023-02-15T21:19:32;9.10;99.90
40434;DHT22;26146;51.114;5.654;2023-02-15T21:23:38;9.20;99.90
40434;DHT22;26146;51.114;5.654;2023-02-15T21:27:40;9.20;99.90
40434;DHT22;26146;51.114;5.654;2023-02-15T21:31:41;9.20;99.90
40434;DHT22;26146;51.114;5.654;2023-02-15T21:35:45;9.10;99.90
40434;DHT22;26146;51.114;5.654;2023-02-15T21:39:47;9.10;99.90
40434;DHT22;26146;51.114;5.654;2023-02-15T21:43:48;9.00;99.90
40434;DHT22;26146;51.114;5.654;2023-02-15T21:48:07;9.10;99.90
40434;DHT22;26146;51.114;5.654;2023-02-15T21:52:11;9.00;99.90
40434;DHT22;26146;51.114;5.654;2023-02-15T21:56:16;9.00;99.90
40434;DHT22;26146;51.114;5.654;2023-02-15T22:00:19;9.00;99.90
40434;DHT22;26146;51.114;5.654;2023-02-15T22:04:24;9.00;99.90
40434;DHT22;26146;51.114;5.654;2023-02-15T22:08:27;8.80;99.90
40434;DHT22;26146;51.114;5.654;2023-02-15T22:12:29;8.80;99.90
40434;DHT22;26146;51.114;5.654;2023-02-15T22:16:29;8.70;99.90
40434;DHT22;26146;51.114;5.654;2023-02-15T22:20:31;8.60;99.90
40434;DHT22;26146;51.114;5.654;2023-02-15T22:24:32;8.50;99.90
40434;DHT22;26146;51.114;5.654;2023-02-15T22:28:37;8.50;99.90
40434;DHT22;26146;51.114;5.654;2023-02-15T22:32:41;8.40;99.90
40434;DHT22;26146;51.114;5.654;2023-02-15T22:36:42;8.40;99.90
40434;DHT22;26146;51.114;5.654;2023-02-15T22:40:44;8.40;99.90
40434;DHT22;26146;51.114;5.654;2023-02-15T22:44:46;8.40;99.90
40434;DHT22;26146;51.114;5.654;2023-02-15T22:48:48;8.30;99.90
40434;DHT22;26146;51.114;5.654;2023-02-15T22:52:49;8.40;99.90
40434;DHT22;26146;51.114;5.654;2023-02-15T22:56:56;8.20;99.90
40434;DHT22;26146;51.114;5.654;2023-02-15T23:00:57;8.20;99.90
40434;DHT22;26146;51.114;5.654;2023-02-15T23:05:00;8.10;99.90
40434;DHT22;26146;51.114;5.654;2023-02-15T23:09:01;8.10;99.90
40434;DHT22;26146;51.114;5.654;2023-02-15T23:13:26;8.10;99.90
40434;DHT22;26146;51.114;5.654;2023-02-15T23:17:29;8.10;99.90
40434;DHT22;26146;51.114;5.654;2023-02-15T23:21:31;8.10;99.90
40434;DHT22;26146;51.114;5.654;2023-02-15T23:25:35;8.00;99.90
40434;DHT22;26146;51.114;5.654;2023-02-15T23:29:36;7.90;99.90
40434;DHT22;26146;51.114;5.654;2023-02-15T23:33:37;7.90;99.90
40434;DHT22;26146;51.114;5.654;2023-02-15T23:37:39;8.00;99.90
40434;DHT22;26146;51.114;5.654;2023-02-15T23:41:40;8.00;99.90
40434;DHT22;26146;51.114;5.654;2023-02-15T23:45:41;7.90;99.90
40434;DHT22;26146;51.114;5.654;2023-02-15T23:49:42;8.00;99.90
40434;DHT22;26146;51.114;5.654;2023-02-15T23:53:45;8.00;99.90
40434;DHT22;26146;51.114;5.654;2023-02-15T23:57:46;7.90;99.90
